Fort Stockton, TX (79735)

10:22 PM CDT on September 01, 2015 (GMT -0500)
Fort Stockton RV Park | | Change Station
CLOSE
Current Station
Personal Weather Station
Location: Fort Stockton, TX
Elevation: 2910 ft
Nearby Weather Stations

Elev 2910 ft 30.89 °N, 102.80 °W | Updated 4 seconds ago

Clear
Clear
79.2 °F
Feels Like 79 °F
N
5.1
Wind Variable Wind from SSE
Gusts 7.0 mph

Today
High -- | Low -- °F
--% Chance of Precip.
Yesterday
High -- | Low -- °F
Precip. -- in
7:27 AM 8:14 PM
Waning Gibbous, 84% visible
Pressure 29.90 in
Visibility 10.0 miles
Clouds Clear
Heat Index 79 °F
Dew Point 50 °F
Humidity 36%
Rainfall 0.00 in
Snow Depth Not available.
UV 0 out of 12
Pollen 9.80 out of 12
Air Quality Not available.
Flu Activity Not available.
METAR KFST 020253Z AUTO 13010KT 10SM CLR 28/10 A3004 RMK AO2 SLP123 T02830100 53016
Pressure 29.90 in
Visibility 10.0 miles
Clouds Clear
Heat Index 79 °F
Dew Point 50 °F
Humidity 36%
Rainfall 0.00 in
Snow Depth Not available.
UV 0 out of 12
Pollen 9.80 out of 12
Air Quality Not available.
Flu Activity Not available.
METAR KFST 020253Z AUTO 13010KT 10SM CLR 28/10 A3004 RMK AO2 SLP123 T02830100 53016

10-Day Weather Forecast

×

Almanac

Astronomy

Sep. 01, 2015 Rise Set
Actual Time
Civil Twilight
Nautical Twilight
Astronomical Twilight
Moon
Length of Visible Light
Length of Day
Tomorrow will be .
, % of the Moon is Illuminated

Today's Extremes

State Highs State Lows

Community

WunderPhotos

Upload Photos

1,851,680 photos uploaded!

WunderBlogs® & News

Nearby

Air Quality

  Air Quality AQ Index Pollutant
Not available.

Snow Depth

Station Depth Elevation

Earthquake Activity

City Distance Mag. Time & Date
Minimum magnitude displayed is 2.5.

Coastal Water Temperatures

Place Temperature

Stations

Nearby Weather Stations

Station Location Temp. Windchill Dew Point Humidity Wind Precip. Elev Updated Type